• Join FlightAware (Why Join?)
  • Login
  • US Flag 
05:47PM EDT


 

Airport Tracker/Info


-or-


 

Live Flight TrackerFlight Track Log ✈ TRS587 ✈ 31-Aug-2013 ✈ KMKE - KMDW

Flight Track Log - Related Links

Times and Time Zones

All times are in EDT time to prevent confusion due to time zone crossing. See the TRS587 flight status page for this flight to view local times or setup timezone preferences in your user account.

Time Position Orientation Groundspeed Altitude Reporting Facility
EDT Latitude Longitude Course Direction KTS MPH feet Rate Location/Type
01:50PM 42.9333 -87.8333 114° Southeast 183 211 4,000  Level KMKE
01:51PM 42.8667 -87.8000 160° South 292 336 4,100  Climbing KMKE
01:52PM 42.8000 -87.7500 151° Southeast 280 322 4,100  Level KMKE
01:53PM 42.7567 -87.7344 165° South 277 319 4,100  Level Chicago Center
01:54PM 42.6856 -87.6931 157° South 277 319 4,100 -60 Level Chicago Center
01:55PM 42.4064 -87.8290 175° South  Level Estimated
01:55PM 42.6153 -87.6536 158° South 274 315 4,000  Level Chicago Center
01:56PM 42.5383 -87.6461 176° South 275 316 4,000  Level Chicago Center
01:57PM 42.4617 -87.6303 171° South 279 321 4,000 -60 Level Chicago Center
01:58PM 42.3783 -87.5853 158° South 276 318 3,900  Descending Chicago Center
01:59PM 42.3186 -87.5511 157° South 273 314 4,000  Climbing Chicago Center
02:00PM 42.2350 -87.5019 156° South 273 314 4,000  Level Chicago Center
02:01PM 42.1661 -87.4628 157° South 271 312 4,000 -60 Level Chicago Center
02:02PM 42.0956 -87.4197 156° South 275 316 3,900  Descending Chicago Center
02:03PM 42.0211 -87.4139 177° South 275 316 4,000  Climbing Chicago Center
02:04PM 41.9483 -87.4161 181° South 268 308 4,000  Level Chicago Center
02:05PM 41.8908 -87.4747 217° Southwest 257 296 4,000  Level Chicago Center
02:06PM 41.8361 -87.5364 220° Southwest 256 295 4,000  Level Chicago Center
02:07PM 41.7758 -87.6181 225° Southwest 257 296 4,000 -60 Level Chicago Center
02:08PM 41.7242 -87.6869 225° Southwest 260 299 3,900 -720 Descending Chicago Center
02:09PM 41.6733 -87.7572 226° Southwest 262 302 2,600 -720 Descending Chicago Center
02:10PM 41.6439 -87.8317 242° Southwest 247 284 2,500 -180 Descending Chicago Center
02:12PM 41.7167 -87.8333 359° North 189 217 2,200 -420 Descending Chicago TRACON
02:13PM 41.7500 -87.8000 37° Northeast 131 151 1,400 -600 Descending Chicago TRACON
02:14PM 41.7867 -87.7508 45° Northeast 147 169 800 -480 Descending Chicago Center